createdAt,value
2017-09-09T00:02:23.640Z,16.90
2017-09-09T00:04:51.211Z,16.80
2017-09-09T00:07:19.594Z,16.90
2017-09-09T00:09:47.324Z,16.80
2017-09-09T00:12:15.669Z,16.90
2017-09-09T00:14:43.255Z,16.90
2017-09-09T00:17:10.844Z,16.90
2017-09-09T00:19:38.420Z,16.80
2017-09-09T00:22:05.991Z,16.80
2017-09-09T00:24:33.550Z,16.90
2017-09-09T00:27:01.122Z,16.90
2017-09-09T00:29:29.459Z,16.80
2017-09-09T00:31:57.835Z,16.90
2017-09-09T00:34:25.409Z,16.90
2017-09-09T00:36:52.981Z,16.80
2017-09-09T00:39:20.579Z,16.80
2017-09-09T00:41:48.181Z,16.80
2017-09-09T00:44:15.735Z,16.80
2017-09-09T00:46:43.322Z,16.80
2017-09-09T00:49:10.909Z,16.80
2017-09-09T00:51:38.498Z,16.80
2017-09-09T00:54:06.099Z,16.80
2017-09-09T00:56:33.709Z,16.80
2017-09-09T00:59:01.263Z,16.80
2017-09-09T01:01:28.853Z,16.80
2017-09-09T01:03:57.010Z,16.70
2017-09-09T01:06:24.613Z,16.70
2017-09-09T01:08:52.183Z,16.70
2017-09-09T01:11:20.520Z,16.70
2017-09-09T01:13:48.088Z,16.70
2017-09-09T01:16:16.431Z,16.70
2017-09-09T01:18:44.015Z,16.70
2017-09-09T01:21:11.669Z,16.70
2017-09-09T01:23:39.242Z,16.80
2017-09-09T01:26:06.825Z,16.80
2017-09-09T01:28:35.230Z,16.80
2017-09-09T01:31:02.804Z,16.80
2017-09-09T01:33:30.418Z,16.80
2017-09-09T01:35:58.893Z,16.80
2017-09-09T01:38:26.474Z,16.70
2017-09-09T01:40:54.067Z,16.70
2017-09-09T01:43:22.436Z,16.80
2017-09-09T01:45:49.987Z,16.80
2017-09-09T01:48:17.570Z,16.80
2017-09-09T01:50:45.161Z,16.80
2017-09-09T01:53:12.741Z,16.60
2017-09-09T01:55:40.418Z,16.60
2017-09-09T01:58:07.987Z,16.50
2017-09-09T02:00:35.577Z,16.60
2017-09-09T02:03:03.149Z,16.50
2017-09-09T02:05:30.720Z,16.50
2017-09-09T02:07:59.059Z,16.40
2017-09-09T02:10:26.620Z,16.40
2017-09-09T02:12:54.223Z,16.40
2017-09-09T02:15:21.778Z,16.40
2017-09-09T02:17:49.354Z,16.40
2017-09-09T02:20:16.939Z,16.40
2017-09-09T02:22:44.536Z,16.40
2017-09-09T02:25:12.124Z,16.50
2017-09-09T02:27:40.464Z,16.50
2017-09-09T02:30:08.080Z,16.40
2017-09-09T02:32:35.669Z,16.50
2017-09-09T02:35:03.231Z,16.50
2017-09-09T02:37:30.801Z,16.40
2017-09-09T02:39:58.451Z,16.50
2017-09-09T02:42:26.022Z,16.50
2017-09-09T02:44:53.639Z,16.50
2017-09-09T02:47:22.102Z,16.40
2017-09-09T02:49:49.711Z,16.50
2017-09-09T02:52:17.325Z,16.50
2017-09-09T02:54:44.895Z,16.40
2017-09-09T02:57:12.482Z,16.40
2017-09-09T02:59:40.064Z,16.40
2017-09-09T03:02:07.657Z,16.50
2017-09-09T03:04:35.222Z,16.40
2017-09-09T03:07:02.828Z,16.40
2017-09-09T03:09:30.400Z,16.40
2017-09-09T03:11:57.954Z,16.40
2017-09-09T03:14:25.535Z,16.40
2017-09-09T03:16:54.363Z,16.40
2017-09-09T03:19:21.962Z,16.30
2017-09-09T03:21:49.524Z,16.40
2017-09-09T03:24:17.087Z,16.30
2017-09-09T03:26:44.672Z,16.30
2017-09-09T03:29:12.247Z,16.40
2017-09-09T03:31:39.852Z,16.30
2017-09-09T03:34:08.185Z,16.30
2017-09-09T03:36:35.780Z,16.30
2017-09-09T03:39:03.384Z,16.30
2017-09-09T03:41:30.988Z,16.30
2017-09-09T03:43:58.600Z,16.40
2017-09-09T03:46:26.172Z,16.40
2017-09-09T03:48:53.748Z,16.40
2017-09-09T03:51:21.349Z,16.30
2017-09-09T03:53:48.936Z,16.30
2017-09-09T03:56:17.247Z,16.40
2017-09-09T03:58:44.825Z,16.40
2017-09-09T04:01:12.400Z,16.30
2017-09-09T04:03:39.991Z,16.40
2017-09-09T04:06:07.570Z,16.40
2017-09-09T04:08:35.915Z,16.40
2017-09-09T04:11:03.529Z,16.40
2017-09-09T04:13:32.281Z,16.40
2017-09-09T04:15:59.855Z,16.40
2017-09-09T04:18:28.020Z,16.50
2017-09-09T04:20:56.365Z,16.50
2017-09-09T04:23:23.945Z,16.50
2017-09-09T04:25:51.518Z,16.50
2017-09-09T04:28:19.121Z,16.50
2017-09-09T04:30:47.454Z,16.50
2017-09-09T04:33:15.818Z,16.50
2017-09-09T04:35:44.192Z,16.50
2017-09-09T04:38:11.774Z,16.50
2017-09-09T04:40:39.355Z,16.40
2017-09-09T04:43:06.948Z,16.30
2017-09-09T04:45:34.542Z,16.40
2017-09-09T04:48:02.867Z,16.30
2017-09-09T04:50:30.490Z,16.30
2017-09-09T04:52:58.051Z,16.30
2017-09-09T04:55:25.614Z,16.30
2017-09-09T04:57:53.191Z,16.30
2017-09-09T05:00:20.768Z,16.30
2017-09-09T05:02:48.362Z,16.20
2017-09-09T05:05:15.934Z,16.20
2017-09-09T05:07:43.520Z,16.20
2017-09-09T05:10:11.107Z,16.10
2017-09-09T05:12:38.685Z,16.10
2017-09-09T05:15:06.267Z,16.10
2017-09-09T05:17:33.849Z,16.10
2017-09-09T05:20:01.433Z,16.10
2017-09-09T05:22:29.018Z,16.20
2017-09-09T05:24:56.612Z,16.20
2017-09-09T05:27:24.214Z,16.20
2017-09-09T05:29:51.798Z,16.20
2017-09-09T05:32:19.418Z,16.20
2017-09-09T05:34:47.015Z,16.20
2017-09-09T05:37:14.800Z,16.20
2017-09-09T05:39:42.385Z,16.20
2017-09-09T05:42:10.736Z,16.30
2017-09-09T05:44:38.300Z,16.20
2017-09-09T05:47:05.932Z,16.30
2017-09-09T05:49:33.550Z,16.30
2017-09-09T05:52:01.202Z,16.30
2017-09-09T05:54:29.534Z,16.40
2017-09-09T05:56:58.071Z,16.40
2017-09-09T05:59:25.649Z,16.50
2017-09-09T06:01:53.284Z,16.40
2017-09-09T06:04:21.672Z,16.40
2017-09-09T06:06:49.239Z,16.40
2017-09-09T06:09:16.827Z,16.20
2017-09-09T06:11:44.395Z,16.20
2017-09-09T06:14:12.021Z,16.20
2017-09-09T06:16:39.574Z,16.10
2017-09-09T06:19:08.130Z,16.40
2017-09-09T06:21:36.634Z,16.40
2017-09-09T06:24:04.243Z,16.40
2017-09-09T06:26:31.970Z,16.30
2017-09-09T06:28:59.600Z,16.30
2017-09-09T06:31:27.244Z,16.30
2017-09-09T06:33:55.849Z,16.20
2017-09-09T06:36:23.470Z,16.20
2017-09-09T06:38:51.065Z,16.10
2017-09-09T06:41:18.629Z,16.00
2017-09-09T06:43:46.255Z,16.00
2017-09-09T06:46:13.858Z,16.00
2017-09-09T06:48:41.451Z,16.00
2017-09-09T06:51:09.042Z,15.80
2017-09-09T06:53:36.629Z,15.90
2017-09-09T06:56:04.210Z,15.90
2017-09-09T06:58:31.815Z,15.80
2017-09-09T07:00:59.445Z,15.70
2017-09-09T07:03:27.040Z,15.70
2017-09-09T07:05:54.652Z,15.70
2017-09-09T07:08:22.245Z,15.60
2017-09-09T07:10:49.837Z,15.60
2017-09-09T07:13:17.421Z,15.60
2017-09-09T07:15:45.035Z,15.70
2017-09-09T07:18:13.364Z,15.60
2017-09-09T07:20:40.929Z,15.60
2017-09-09T07:23:08.505Z,15.70
2017-09-09T07:25:36.802Z,15.60
2017-09-09T07:28:04.375Z,15.60
2017-09-09T07:30:31.971Z,15.60
2017-09-09T07:32:59.629Z,15.70
2017-09-09T07:35:28.009Z,15.70
2017-09-09T07:37:56.358Z,15.70
2017-09-09T07:40:23.976Z,15.70
2017-09-09T07:42:51.556Z,15.60
2017-09-09T07:45:19.145Z,15.00
2017-09-09T07:47:46.733Z,14.70
2017-09-09T07:50:15.148Z,14.80
2017-09-09T07:52:42.768Z,14.70
2017-09-09T07:55:10.357Z,14.50
2017-09-09T07:57:37.932Z,14.50
2017-09-09T08:00:06.305Z,14.30
2017-09-09T08:02:33.905Z,14.30
2017-09-09T08:05:01.532Z,14.30
2017-09-09T08:07:29.148Z,14.40
2017-09-09T08:09:56.734Z,14.40
2017-09-09T08:12:24.346Z,14.50
2017-09-09T08:14:51.915Z,14.50
2017-09-09T08:17:19.525Z,14.50
2017-09-09T08:19:47.078Z,14.40
2017-09-09T08:22:14.704Z,14.50
2017-09-09T08:24:42.289Z,14.60
2017-09-09T08:27:10.740Z,14.70
2017-09-09T08:29:38.333Z,14.60
2017-09-09T08:32:05.928Z,14.70
2017-09-09T08:34:33.771Z,14.70
2017-09-09T08:37:01.491Z,14.70
2017-09-09T08:39:29.113Z,14.80
2017-09-09T08:41:56.700Z,14.80
2017-09-09T08:44:25.088Z,14.90
2017-09-09T08:46:53.532Z,14.90
2017-09-09T08:49:21.114Z,15.00
2017-09-09T08:51:48.740Z,15.00
2017-09-09T08:54:16.310Z,15.00
2017-09-09T08:56:43.920Z,15.00
2017-09-09T08:59:11.551Z,15.10
2017-09-09T09:01:39.163Z,15.10
2017-09-09T09:04:07.535Z,15.20
2017-09-09T09:06:35.160Z,15.20
2017-09-09T09:09:03.593Z,15.20
2017-09-09T09:11:31.858Z,15.30
2017-09-09T09:13:59.481Z,15.30
2017-09-09T09:16:27.081Z,15.30
2017-09-09T09:18:54.681Z,15.20
2017-09-09T09:21:22.254Z,15.20
2017-09-09T09:23:49.877Z,15.30
2017-09-09T09:26:17.474Z,15.30
2017-09-09T09:28:45.071Z,15.40
2017-09-09T09:31:12.674Z,15.40
2017-09-09T09:33:40.259Z,15.40
2017-09-09T09:36:08.606Z,15.50
2017-09-09T09:38:36.202Z,15.50
2017-09-09T09:41:03.770Z,15.70
2017-09-09T09:43:31.410Z,15.80
2017-09-09T09:45:58.989Z,15.90
2017-09-09T09:48:26.561Z,15.90
2017-09-09T09:50:54.141Z,15.90
2017-09-09T09:53:22.544Z,16.00
2017-09-09T09:55:50.885Z,16.20
2017-09-09T09:58:18.499Z,16.20
2017-09-09T10:00:46.067Z,16.40
2017-09-09T10:03:13.665Z,16.70
2017-09-09T10:05:41.250Z,16.90
2017-09-09T10:08:08.883Z,17.20
2017-09-09T10:10:37.253Z,17.80
2017-09-09T10:13:04.826Z,17.70
2017-09-09T10:15:32.404Z,17.70
2017-09-09T10:18:01.141Z,17.90
2017-09-09T10:20:28.709Z,18.00
2017-09-09T10:22:56.576Z,18.30
2017-09-09T10:25:24.154Z,18.60
2017-09-09T10:27:52.528Z,19.30
2017-09-09T10:30:20.108Z,19.30
2017-09-09T10:32:47.699Z,19.60
2017-09-09T10:35:15.289Z,19.60
2017-09-09T10:37:42.861Z,19.70
2017-09-09T10:40:10.465Z,19.50
2017-09-09T10:42:38.050Z,19.10
2017-09-09T10:45:05.619Z,18.80
2017-09-09T10:47:36.167Z,19.00
2017-09-09T10:50:03.879Z,18.90
2017-09-09T10:52:32.219Z,19.30
2017-09-09T10:54:59.790Z,19.20
2017-09-09T10:57:27.391Z,18.90
2017-09-09T10:59:54.969Z,18.90
2017-09-09T11:02:22.534Z,18.90
2017-09-09T11:04:50.107Z,19.10
2017-09-09T11:07:17.674Z,19.50
2017-09-09T11:09:45.290Z,19.70
2017-09-09T11:12:13.807Z,19.80
2017-09-09T11:14:41.396Z,20.10
2017-09-09T11:17:08.969Z,20.10
2017-09-09T11:19:37.307Z,19.70
2017-09-09T11:22:05.647Z,19.70
2017-09-09T11:24:33.239Z,20.00
2017-09-09T11:27:01.625Z,19.90
2017-09-09T11:29:29.214Z,19.90
2017-09-09T11:31:56.866Z,19.60
2017-09-09T11:34:24.458Z,19.30
2017-09-09T11:36:52.147Z,19.30
2017-09-09T11:39:19.789Z,19.60
2017-09-09T11:41:47.369Z,19.60
2017-09-09T11:44:15.635Z,19.70
2017-09-09T11:46:43.240Z,20.00
2017-09-09T11:49:10.839Z,19.60
2017-09-09T11:51:38.497Z,19.70
2017-09-09T11:54:06.105Z,19.60
2017-09-09T11:56:33.668Z,19.60
2017-09-09T11:59:01.267Z,20.00
2017-09-09T12:01:28.859Z,20.70
2017-09-09T12:03:57.342Z,21.50
2017-09-09T12:06:25.725Z,22.60
2017-09-09T12:08:53.302Z,22.50
2017-09-09T12:11:20.893Z,22.40
2017-09-09T12:13:50.733Z,22.10
2017-09-09T12:16:18.305Z,22.10
2017-09-09T12:18:46.665Z,22.60
2017-09-09T12:21:15.035Z,22.20
2017-09-09T12:23:42.611Z,22.20
2017-09-09T12:26:10.295Z,21.80
2017-09-09T12:28:37.896Z,21.60
2017-09-09T12:31:05.479Z,21.50
2017-09-09T12:33:33.073Z,21.50
2017-09-09T12:36:00.664Z,21.70
2017-09-09T12:38:29.024Z,21.40
2017-09-09T12:40:56.628Z,21.40
2017-09-09T12:43:24.227Z,21.00
2017-09-09T12:45:51.835Z,20.90
2017-09-09T12:48:19.501Z,20.90
2017-09-09T12:50:47.929Z,21.10
2017-09-09T12:53:15.531Z,21.00
2017-09-09T12:55:43.303Z,21.00
2017-09-09T12:58:10.860Z,21.20
2017-09-09T13:00:38.457Z,21.50
2017-09-09T13:03:09.081Z,21.60
2017-09-09T13:05:36.683Z,21.60
2017-09-09T13:08:05.056Z,21.40
2017-09-09T13:10:32.685Z,21.30
2017-09-09T13:13:01.030Z,20.60
2017-09-09T13:15:28.620Z,20.50
2017-09-09T13:17:57.113Z,20.20
2017-09-09T13:20:24.690Z,20.10
2017-09-09T13:22:53.186Z,20.00
2017-09-09T13:25:20.757Z,20.10
2017-09-09T13:27:48.365Z,20.00
2017-09-09T13:30:17.618Z,19.90
2017-09-09T13:32:46.026Z,19.90
2017-09-09T13:35:13.610Z,19.90
2017-09-09T13:37:41.198Z,20.00
2017-09-09T13:40:08.784Z,20.10
2017-09-09T13:42:37.131Z,20.00
2017-09-09T13:45:05.580Z,19.70
2017-09-09T13:47:33.210Z,19.70
2017-09-09T13:50:01.682Z,19.70
2017-09-09T13:52:29.476Z,19.70
2017-09-09T13:54:57.179Z,19.70
2017-09-09T13:57:24.834Z,19.80
2017-09-09T13:59:52.419Z,19.60
2017-09-09T14:02:20.032Z,19.60
2017-09-09T14:04:48.408Z,19.60
2017-09-09T14:07:16.010Z,19.60
2017-09-09T14:09:43.598Z,19.60
2017-09-09T14:12:11.248Z,19.50
2017-09-09T14:14:38.843Z,19.40
2017-09-09T14:17:06.720Z,19.40
2017-09-09T14:19:34.430Z,19.40
2017-09-09T14:22:02.029Z,19.30
2017-09-09T14:24:29.614Z,19.40
2017-09-09T14:26:57.349Z,19.60
2017-09-09T14:29:24.975Z,19.60
2017-09-09T14:31:53.363Z,19.50
2017-09-09T14:34:20.931Z,19.40
2017-09-09T14:36:48.563Z,19.30
2017-09-09T14:39:16.141Z,19.30
2017-09-09T14:41:44.136Z,19.20
2017-09-09T14:44:11.711Z,19.10
2017-09-09T14:46:40.062Z,18.90
2017-09-09T14:49:08.405Z,19.00
2017-09-09T14:51:36.051Z,18.90
2017-09-09T14:54:03.662Z,19.00
2017-09-09T14:56:31.255Z,19.10
2017-09-09T14:58:58.858Z,19.20
2017-09-09T15:01:26.925Z,19.30
2017-09-09T15:03:54.506Z,19.20
2017-09-09T15:06:22.228Z,19.10
2017-09-09T15:08:51.287Z,19.10
2017-09-09T15:11:20.986Z,19.00
2017-09-09T15:13:49.242Z,19.00
2017-09-09T15:16:16.940Z,19.10
2017-09-09T15:18:45.864Z,19.20
2017-09-09T15:21:14.157Z,19.10
2017-09-09T15:23:42.442Z,19.00
2017-09-09T15:26:11.714Z,19.00
2017-09-09T15:28:39.555Z,19.00
2017-09-09T15:31:07.194Z,19.00
2017-09-09T15:33:36.340Z,18.90
2017-09-09T15:36:05.609Z,18.80
2017-09-09T15:38:33.546Z,18.80
2017-09-09T15:41:02.731Z,18.70
2017-09-09T15:43:31.568Z,18.70
2017-09-09T15:45:59.174Z,18.70
2017-09-09T15:48:26.776Z,18.60
2017-09-09T15:50:54.406Z,18.60
2017-09-09T15:53:21.980Z,18.70
2017-09-09T15:55:49.594Z,18.60
2017-09-09T15:58:17.194Z,18.70
2017-09-09T16:00:44.826Z,18.60
2017-09-09T16:03:13.173Z,18.70
2017-09-09T16:05:40.806Z,18.60
2017-09-09T16:08:08.385Z,18.50
2017-09-09T16:10:35.985Z,18.50
2017-09-09T16:13:04.372Z,18.50
2017-09-09T16:15:31.952Z,18.50
2017-09-09T16:17:59.577Z,18.50
2017-09-09T16:20:27.885Z,18.60
2017-09-09T16:22:55.565Z,18.60
2017-09-09T16:25:23.551Z,18.60
2017-09-09T16:27:51.457Z,18.50
2017-09-09T16:30:19.198Z,18.50
2017-09-09T16:32:46.944Z,18.40
2017-09-09T16:35:14.685Z,18.40
2017-09-09T16:37:43.054Z,18.30
2017-09-09T16:40:11.090Z,18.30
2017-09-09T16:42:39.412Z,18.20
2017-09-09T16:45:07.781Z,18.20
2017-09-09T16:47:35.418Z,18.10
2017-09-09T16:50:05.608Z,18.00
2017-09-09T16:52:33.218Z,18.00
2017-09-09T16:55:01.582Z,17.90
2017-09-09T16:57:29.146Z,17.90
2017-09-09T16:59:58.085Z,17.80
2017-09-09T17:02:25.687Z,17.80
2017-09-09T17:04:53.287Z,17.70
2017-09-09T17:07:21.838Z,17.70
2017-09-09T17:09:49.432Z,17.70
2017-09-09T17:12:17.022Z,17.60
2017-09-09T17:14:44.609Z,17.60
2017-09-09T17:17:12.218Z,17.60
2017-09-09T17:19:39.835Z,17.60
2017-09-09T17:22:07.463Z,17.60
2017-09-09T17:24:35.803Z,17.50
2017-09-09T17:27:03.382Z,17.50
2017-09-09T17:29:30.975Z,17.50
2017-09-09T17:31:58.601Z,17.50
2017-09-09T17:34:26.184Z,17.50
2017-09-09T17:36:53.759Z,17.40
2017-09-09T17:39:22.103Z,17.30
2017-09-09T17:41:49.713Z,17.30
2017-09-09T17:44:17.330Z,17.30
2017-09-09T17:46:46.874Z,17.30
2017-09-09T17:49:14.475Z,17.30
2017-09-09T17:51:42.756Z,17.30
2017-09-09T17:54:11.122Z,17.20
2017-09-09T17:56:38.721Z,17.20
2017-09-09T17:59:06.309Z,17.20
2017-09-09T18:01:33.949Z,17.10
2017-09-09T18:04:01.569Z,17.10
2017-09-09T18:06:29.421Z,17.10
2017-09-09T18:09:00.298Z,17.00
2017-09-09T18:11:27.960Z,17.00
2017-09-09T18:13:56.767Z,17.00
2017-09-09T18:16:24.745Z,17.00
2017-09-09T18:18:52.315Z,16.90
2017-09-09T18:21:19.911Z,17.00
2017-09-09T18:23:48.049Z,16.90
2017-09-09T18:26:16.373Z,16.90
2017-09-09T18:28:43.958Z,16.80
2017-09-09T18:31:11.559Z,16.80
2017-09-09T18:33:39.170Z,16.80
2017-09-09T18:36:07.531Z,16.80
2017-09-09T18:38:35.495Z,16.80
2017-09-09T18:41:03.234Z,16.80
2017-09-09T18:43:32.255Z,16.80
2017-09-09T18:46:00.196Z,16.80
2017-09-09T18:48:27.986Z,16.80
2017-09-09T18:50:56.230Z,16.80
2017-09-09T18:53:23.844Z,16.80
2017-09-09T18:55:51.443Z,16.70
2017-09-09T18:58:19.023Z,16.80
2017-09-09T19:00:46.641Z,16.70
2017-09-09T19:03:14.215Z,16.60
2017-09-09T19:05:42.534Z,16.50
2017-09-09T19:08:10.131Z,16.40
2017-09-09T19:10:37.934Z,16.50
2017-09-09T19:13:06.712Z,16.40
2017-09-09T19:15:35.421Z,16.50
2017-09-09T19:18:03.886Z,16.50
2017-09-09T19:20:31.475Z,16.50
2017-09-09T19:23:00.100Z,16.50
2017-09-09T19:25:27.706Z,16.40
2017-09-09T19:27:55.959Z,16.40
2017-09-09T19:30:24.488Z,16.30
2017-09-09T19:32:52.070Z,16.30
2017-09-09T19:35:19.815Z,16.30
2017-09-09T19:37:48.367Z,16.20
2017-09-09T19:40:16.783Z,16.10
2017-09-09T19:42:45.132Z,16.10
2017-09-09T19:45:12.725Z,16.10
2017-09-09T19:47:40.386Z,16.10
2017-09-09T19:50:08.113Z,16.00
2017-09-09T19:52:35.757Z,16.00
2017-09-09T19:55:03.546Z,16.00
2017-09-09T19:57:31.123Z,16.00
2017-09-09T19:59:59.217Z,16.10
2017-09-09T20:02:27.175Z,16.00
2017-09-09T20:04:56.548Z,16.00
2017-09-09T20:07:25.272Z,16.00
2017-09-09T20:09:53.013Z,16.00
2017-09-09T20:12:21.399Z,16.00
2017-09-09T20:14:49.450Z,16.00
2017-09-09T20:17:17.232Z,16.00
2017-09-09T20:19:46.878Z,16.00
2017-09-09T20:22:16.044Z,15.90
2017-09-09T20:24:45.793Z,15.90
2017-09-09T20:27:13.447Z,15.90
2017-09-09T20:29:42.145Z,15.90
2017-09-09T20:32:11.440Z,15.90
2017-09-09T20:34:39.930Z,15.90
2017-09-09T20:37:07.692Z,15.90
2017-09-09T20:39:37.940Z,15.90
2017-09-09T20:42:05.955Z,15.90
2017-09-09T20:44:34.361Z,15.90
2017-09-09T20:47:02.067Z,15.80
2017-09-09T20:49:31.553Z,15.80
2017-09-09T20:51:59.220Z,15.90
2017-09-09T20:54:28.993Z,15.80
2017-09-09T20:57:03.753Z,15.70
2017-09-09T20:59:32.876Z,15.70
2017-09-09T21:08:54.380Z,15.70
2017-09-09T21:11:21.951Z,15.60
2017-09-09T21:13:49.542Z,15.60
2017-09-09T21:16:17.171Z,15.60
2017-09-09T21:18:44.758Z,15.50
2017-09-09T21:21:13.135Z,15.50
2017-09-09T21:23:40.715Z,15.50
2017-09-09T21:26:08.321Z,15.40
2017-09-09T21:28:35.888Z,15.40
2017-09-09T21:31:03.582Z,15.50
2017-09-09T21:33:31.146Z,15.50
2017-09-09T21:35:58.741Z,15.40
2017-09-09T21:38:26.355Z,15.40
2017-09-09T21:40:54.719Z,15.40
2017-09-09T21:43:22.302Z,15.30
2017-09-09T21:45:49.921Z,15.30
2017-09-09T21:48:17.500Z,15.30
2017-09-09T21:50:45.853Z,15.30
2017-09-09T21:53:13.409Z,15.30
2017-09-09T21:55:40.999Z,15.20
2017-09-09T21:58:08.585Z,15.20
2017-09-09T22:00:36.189Z,15.10
2017-09-09T22:03:03.744Z,15.20
2017-09-09T22:05:31.372Z,15.20
2017-09-09T22:07:59.527Z,15.20
2017-09-09T22:10:27.114Z,15.20
2017-09-09T22:12:54.730Z,15.10
2017-09-09T22:15:23.094Z,15.00
2017-09-09T22:17:51.431Z,14.90
2017-09-09T22:20:19.027Z,14.90
2017-09-09T22:22:46.630Z,14.70
2017-09-09T22:25:14.221Z,14.60
2017-09-09T22:27:41.824Z,14.70
2017-09-09T22:30:10.175Z,14.70
2017-09-09T22:32:37.757Z,14.70
2017-09-09T22:35:05.351Z,14.70
2017-09-09T22:37:33.691Z,14.70
2017-09-09T22:40:01.279Z,14.70
2017-09-09T22:42:28.849Z,14.70
2017-09-09T22:44:58.233Z,14.70
2017-09-09T22:47:25.807Z,14.70
2017-09-09T22:49:54.172Z,14.60
2017-09-09T22:52:22.543Z,14.60
2017-09-09T22:54:50.118Z,14.60
2017-09-09T22:57:18.269Z,14.60
2017-09-09T22:59:45.858Z,14.60
2017-09-09T23:02:13.433Z,14.70
2017-09-09T23:04:41.019Z,14.70
2017-09-09T23:07:08.595Z,14.70
2017-09-09T23:09:36.183Z,14.70
2017-09-09T23:12:03.767Z,14.70
2017-09-09T23:14:31.399Z,14.70
2017-09-09T23:16:58.994Z,14.70
2017-09-09T23:19:26.570Z,14.70
2017-09-09T23:21:54.179Z,14.70
2017-09-09T23:24:21.729Z,14.70
2017-09-09T23:26:49.982Z,14.80
2017-09-09T23:29:17.582Z,14.80
2017-09-09T23:31:45.926Z,14.80
2017-09-09T23:34:13.752Z,14.80
2017-09-09T23:36:42.215Z,14.90
2017-09-09T23:39:09.835Z,14.90
2017-09-09T23:41:37.418Z,14.90
2017-09-09T23:44:05.027Z,14.90
2017-09-09T23:46:32.599Z,14.90
2017-09-09T23:49:00.850Z,14.80
2017-09-09T23:51:28.440Z,14.80
2017-09-09T23:53:56.011Z,14.80
2017-09-09T23:56:24.401Z,14.80
2017-09-09T23:58:52.000Z,14.70
